Time;durP1;ratioP1;P1;durP2;ratioP2;P2;SDS_P1;SDS_P2;PMS_P1;PMS_P2;Temp;Humidity;BMP_temperature;BMP_pressure;BME280_temperature;BME280_humidity;BME280_pressure;Samples;Min_cycle;Max_cycle;Signal;HPM_P1;HPM_P2
2023/01/20 00:01:19;;;;;;;;;;;;;;;19.89;47.67;100445.19;4896442;29;4359;-60
2023/01/20 00:03:46;;;;;;;;;;;;;;;19.89;47.72;100445.19;4892775;29;5484;-60
2023/01/20 00:06:13;;;;;;;;;;;;;;;19.88;47.64;100437.94;4894358;29;4067;-61
2023/01/20 00:08:39;;;;;;;;;;;;;;;19.90;47.44;100443.75;4900573;29;4205;-61
2023/01/20 00:11:06;;;;;;;;;;;;;;;19.91;47.46;100439.50;4888671;29;4232;-60
2023/01/20 00:13:33;;;;;;;;;;;;;;;19.93;47.43;100439.59;4899316;29;4376;-60
2023/01/20 00:16:03;;;;;;;;;;;;;;;19.93;47.22;100445.34;4894359;29;4051;-60
2023/01/20 00:18:29;;;;;;;;;;;;;;;19.96;47.28;100444.03;4893577;29;4147;-62
2023/01/20 00:20:56;;;;;;;;;;;;;;;19.96;47.43;100449.78;4897411;29;4222;-60
2023/01/20 00:23:22;;;;;;;;;;;;;;;19.97;47.59;100445.50;4895435;29;4199;-60
2023/01/20 00:25:48;;;;;;;;;;;;;;;19.99;47.92;100447.72;4893230;29;4025;-60
2023/01/20 00:28:15;;;;;;;;;;;;;;;19.99;47.71;100448.47;4898670;29;4240;-60
2023/01/20 00:30:42;;;;;;;;;;;;;;;20.00;47.92;100449.22;4899142;29;4215;-60
2023/01/20 00:33:08;;;;;;;;;;;;;;;20.01;48.08;100450.69;4895726;29;5230;-60
2023/01/20 00:35:35;;;;;;;;;;;;;;;20.01;48.18;100451.41;4898827;29;4241;-60
2023/01/20 00:38:01;;;;;;;;;;;;;;;19.99;48.06;100457.06;4887730;29;4210;-60
2023/01/20 00:40:28;;;;;;;;;;;;;;;19.99;47.94;100454.19;4898166;29;4214;-60
2023/01/20 00:42:54;;;;;;;;;;;;;;;20.00;48.15;100460.72;4895721;29;4356;-60
2023/01/20 00:45:20;;;;;;;;;;;;;;;19.99;48.27;100465.69;4895135;29;4179;-60
2023/01/20 00:47:47;;;;;;;;;;;;;;;19.98;48.12;100469.97;4897614;29;4127;-60
2023/01/20 00:50:13;;;;;;;;;;;;;;;19.98;48.06;100469.25;4893221;29;4063;-60
2023/01/20 00:52:39;;;;;;;;;;;;;;;19.97;48.13;100468.50;4898964;29;4309;-61
2023/01/20 00:55:06;;;;;;;;;;;;;;;19.96;47.96;100467.03;4894661;29;5447;-60
2023/01/20 00:57:32;;;;;;;;;;;;;;;19.95;47.98;100465.56;4897425;29;5416;-60
2023/01/20 00:59:58;;;;;;;;;;;;;;;19.96;48.04;100464.16;4897193;29;4370;-60
2023/01/20 01:02:25;;;;;;;;;;;;;;;19.96;48.34;100472.75;4895807;29;4197;-60
2023/01/20 01:04:51;;;;;;;;;;;;;;;19.97;48.44;100485.00;4895338;29;4148;-60
2023/01/20 01:07:18;;;;;;;;;;;;;;;19.97;48.60;100485.00;4891951;29;5442;-61
2023/01/20 01:09:45;;;;;;;;;;;;;;;19.98;48.67;100489.38;4886968;29;4274;-60
2023/01/20 01:12:11;;;;;;;;;;;;;;;19.98;48.59;100492.97;4891207;29;4633;-60
2023/01/20 01:14:38;;;;;;;;;;;;;;;19.99;48.60;100491.56;4899448;29;5268;-61
2023/01/20 01:17:04;;;;;;;;;;;;;;;20.00;48.51;100500.94;4893608;29;4199;-60
2023/01/20 01:19:30;;;;;;;;;;;;;;;19.99;48.63;100503.06;4895359;29;4469;-61
2023/01/20 01:21:56;;;;;;;;;;;;;;;19.99;48.63;100499.44;4896122;29;5385;-60
2023/01/20 01:24:23;;;;;;;;;;;;;;;19.98;48.42;100495.84;4894611;29;4283;-60
2023/01/20 01:26:51;;;;;;;;;;;;;;;19.97;48.42;100494.34;4896267;29;4200;-60
2023/01/20 01:29:17;;;;;;;;;;;;;;;19.97;48.28;100499.38;4892605;29;5241;-60
2023/01/20 01:31:44;;;;;;;;;;;;;;;19.96;48.52;100507.25;4889361;29;4353;-60
2023/01/20 01:34:10;;;;;;;;;;;;;;;19.95;48.29;100508.66;4896011;29;4206;-60
2023/01/20 01:36:36;;;;;;;;;;;;;;;19.94;48.30;100515.06;4890650;29;4333;-60
2023/01/20 01:39:03;;;;;;;;;;;;;;;19.95;48.23;100507.91;4894488;29;4118;-60
2023/01/20 01:41:29;;;;;;;;;;;;;;;19.96;48.51;100512.25;4891549;29;4124;-61
2023/01/20 01:43:59;;;;;;;;;;;;;;;19.96;48.42;100518.00;4892514;29;4275;-60
2023/01/20 01:46:25;;;;;;;;;;;;;;;19.97;48.19;100525.97;4884320;29;4045;-60
2023/01/20 01:48:51;;;;;;;;;;;;;;;19.98;48.33;100527.47;4894542;29;4463;-60
2023/01/20 01:51:18;;;;;;;;;;;;;;;19.98;48.25;100527.47;4897778;29;5238;-60
2023/01/20 01:53:46;;;;;;;;;;;;;;;19.99;48.45;100533.94;4893285;29;4217;-60
2023/01/20 01:56:12;;;;;;;;;;;;;;;19.99;48.48;100528.94;4889873;29;5477;-61
2023/01/20 01:58:40;;;;;;;;;;;;;;;19.99;48.43;100528.19;4880725;29;3976;-61
2023/01/20 02:01:06;;;;;;;;;;;;;;;19.97;48.59;100533.84;4891677;29;4145;-61
2023/01/20 02:03:36;;;;;;;;;;;;;;;19.97;48.38;100537.47;4892625;29;4211;-60
2023/01/20 02:06:03;;;;;;;;;;;;;;;19.98;48.41;100541.81;4887724;29;3948;-60
2023/01/20 02:08:29;;;;;;;;;;;;;;;19.97;48.41;100543.22;4905837;29;4199;-61
2023/01/20 02:10:56;;;;;;;;;;;;;;;19.96;48.42;100547.50;4892323;29;3956;-60
2023/01/20 02:13:22;;;;;;;;;;;;;;;19.95;48.20;100554.63;4894449;29;4089;-61
2023/01/20 02:15:52;;;;;;;;;;;;;;;19.95;48.54;100557.50;4896079;29;4100;-61
2023/01/20 02:18:41;;;;;;;;;;;;;;;19.95;48.65;100554.63;4907552;29;4211;-60
2023/01/20 02:21:08;;;;;;;;;;;;;;;19.94;48.45;100564.63;4880522;29;4031;-61
2023/01/20 02:23:37;;;;;;;;;;;;;;;19.94;48.35;100558.88;4896560;29;4214;-61
2023/01/20 02:26:08;;;;;;;;;;;;;;;19.95;48.51;100563.25;4894001;29;3985;-60
2023/01/20 02:28:36;;;;;;;;;;;;;;;19.95;48.67;100563.25;4867911;29;5381;-60
2023/01/20 02:31:05;;;;;;;;;;;;;;;19.95;48.75;100569.00;4895883;29;4077;-60
2023/01/20 02:33:32;;;;;;;;;;;;;;;19.96;48.64;100570.47;4894926;29;4108;-61
2023/01/20 02:36:28;;;;;;;;;;;;;;;19.98;48.63;100587.06;4895618;29;4151;-60
2023/01/20 02:38:55;;;;;;;;;;;;;;;19.97;48.38;100589.19;4894063;29;4026;-60
2023/01/20 02:41:41;;;;;;;;;;;;;;;19.96;48.69;100587.72;4909842;29;4498;-60
2023/01/20 02:44:14;;;;;;;;;;;;;;;19.97;48.65;100594.19;4893258;29;4127;-60
2023/01/20 02:46:51;;;;;;;;;;;;;;;19.96;48.82;100593.47;4890744;29;4261;-60
2023/01/20 02:49:19;;;;;;;;;;;;;;;19.95;48.83;100596.97;4888806;29;4131;-60
2023/01/20 02:52:00;;;;;;;;;;;;;;;19.94;48.71;100596.25;4888629;29;4205;-61
2023/01/20 02:54:27;;;;;;;;;;;;;;;19.95;48.59;100602.72;4891256;29;4034;-60
2023/01/20 02:56:53;;;;;;;;;;;;;;;19.94;48.53;100602.00;4900875;29;4054;-61
2023/01/20 02:59:21;;;;;;;;;;;;;;;19.93;48.68;100611.25;4893145;29;4224;-60
2023/01/20 03:01:49;;;;;;;;;;;;;;;19.93;48.56;100609.16;4894127;29;5312;-60
2023/01/20 03:04:17;;;;;;;;;;;;;;;19.93;48.44;100606.28;4911777;29;4151;-62
2023/01/20 03:06:45;;;;;;;;;;;;;;;19.94;48.56;100619.25;4908263;29;4322;-60
2023/01/20 03:09:12;;;;;;;;;;;;;;;19.94;48.53;100619.25;4892406;29;4222;-62
2023/01/20 03:11:39;;;;;;;;;;;;;;;19.95;48.45;100615.00;4896264;29;5252;-60
2023/01/20 03:14:07;;;;;;;;;;;;;;;19.95;48.73;100620.75;4894025;29;4218;-60
2023/01/20 03:16:33;;;;;;;;;;;;;;;19.95;48.73;100623.63;4907244;29;5260;-60
2023/01/20 03:19:00;;;;;;;;;;;;;;;19.94;48.72;100622.13;4894775;29;4450;-60
2023/01/20 03:21:26;;;;;;;;;;;;;;;19.95;48.63;100615.00;4892307;29;4197;-60
2023/01/20 03:23:53;;;;;;;;;;;;;;;19.95;48.57;100632.22;4895490;29;4300;-60
2023/01/20 03:26:20;;;;;;;;;;;;;;;19.94;48.36;100630.75;4913111;29;4146;-60
2023/01/20 03:28:47;;;;;;;;;;;;;;;19.93;48.73;100634.25;4902538;29;4245;-60
2023/01/20 03:31:16;;;;;;;;;;;;;;;19.93;48.62;100640.75;4898740;29;4242;-60
2023/01/20 03:33:43;;;;;;;;;;;;;;;19.92;48.68;100642.13;4897664;29;4213;-60
2023/01/20 03:36:10;;;;;;;;;;;;;;;19.92;48.38;100650.75;4898809;29;5263;-60
2023/01/20 03:38:36;;;;;;;;;;;;;;;19.91;48.44;100646.41;4911629;29;5577;-60
2023/01/20 03:41:04;;;;;;;;;;;;;;;19.90;48.48;100644.91;4896954;29;4196;-60
2023/01/20 03:43:34;;;;;;;;;;;;;;;19.89;48.48;100654.94;4893071;29;5264;-61
2023/01/20 03:46:01;;;;;;;;;;;;;;;19.88;48.56;100650.56;4900174;29;4228;-60
2023/01/20 03:48:30;;;;;;;;;;;;;;;19.88;48.54;100656.31;4899185;29;5310;-60
2023/01/20 03:51:06;;;;;;;;;;;;;;;19.90;48.47;100652.81;4897470;29;4346;-60
2023/01/20 03:53:34;;;;;;;;;;;;;;;19.90;48.59;100658.56;4893474;29;4282;-60
2023/01/20 03:56:12;;;;;;;;;;;;;;;19.91;48.54;100657.91;4899199;29;5244;-60
2023/01/20 03:58:39;;;;;;;;;;;;;;;19.91;48.50;100655.03;4895728;29;4216;-61
2023/01/20 04:01:06;;;;;;;;;;;;;;;19.94;48.72;100653.00;4891355;29;4293;-60
2023/01/20 04:03:44;;;;;;;;;;;;;;;19.94;48.74;100661.63;4885899;29;4494;-61
2023/01/20 04:06:11;;;;;;;;;;;;;;;19.96;48.82;100662.44;4892639;29;4170;-60
2023/01/20 04:08:39;;;;;;;;;;;;;;;19.96;48.61;100667.44;4895407;29;5504;-60
2023/01/20 04:11:06;;;;;;;;;;;;;;;19.96;48.47;100665.31;4896035;29;4406;-59
2023/01/20 04:13:32;;;;;;;;;;;;;;;19.98;48.41;100676.91;4896653;29;5484;-60
2023/01/20 04:15:58;;;;;;;;;;;;;;;19.99;48.62;100681.25;4895009;29;4222;-60
2023/01/20 04:18:25;;;;;;;;;;;;;;;19.99;48.60;100678.38;4894825;29;4110;-61
2023/01/20 04:21:01;;;;;;;;;;;;;;;20.00;48.66;100679.88;4892862;29;5390;-61
2023/01/20 04:23:27;;;;;;;;;;;;;;;20.02;48.80;100679.22;4894089;29;4051;-60
2023/01/20 04:25:53;;;;;;;;;;;;;;;20.02;48.65;100687.81;4898557;29;4182;-61
2023/01/20 04:28:20;;;;;;;;;;;;;;;20.02;48.67;100697.22;4896970;29;5262;-60
2023/01/20 04:30:46;;;;;;;;;;;;;;;20.01;48.50;100692.84;4897418;29;5244;-60
2023/01/20 04:33:13;;;;;;;;;;;;;;;20.01;48.79;100695.72;4896017;29;4228;-60
2023/01/20 04:35:39;;;;;;;;;;;;;;;20.01;48.36;100689.97;4896366;29;4153;-60
2023/01/20 04:38:05;;;;;;;;;;;;;;;20.00;48.66;100691.38;4894745;29;5236;-60
2023/01/20 04:40:32;;;;;;;;;;;;;;;20.00;48.66;100702.13;4897506;29;4265;-61
2023/01/20 04:42:58;;;;;;;;;;;;;;;19.99;48.73;100707.13;4894548;29;5235;-60
2023/01/20 04:45:24;;;;;;;;;;;;;;;19.99;48.85;100712.88;4895534;29;4197;-60
2023/01/20 04:47:51;;;;;;;;;;;;;;;20.00;48.80;100720.13;4900687;29;4356;-61
2023/01/20 04:50:17;;;;;;;;;;;;;;;19.99;48.83;100706.38;4897567;29;4238;-61
2023/01/20 04:52:44;;;;;;;;;;;;;;;19.99;48.78;100723.63;4895996;29;4263;-60
2023/01/20 04:55:10;;;;;;;;;;;;;;;20.00;48.54;100714.38;4897095;29;4899;-61
2023/01/20 04:57:36;;;;;;;;;;;;;;;20.00;48.50;100728.00;4897894;29;4173;-61
2023/01/20 05:00:03;;;;;;;;;;;;;;;20.00;48.66;100725.88;4891471;29;4019;-61
2023/01/20 05:02:29;;;;;;;;;;;;;;;20.01;48.59;100721.59;4884671;29;4220;-62
2023/01/20 05:04:56;;;;;;;;;;;;;;;20.02;48.46;100728.81;4896572;29;3981;-61
2023/01/20 05:07:22;;;;;;;;;;;;;;;20.02;48.73;100728.81;4894057;29;4237;-60
2023/01/20 05:09:48;;;;;;;;;;;;;;;20.03;48.76;100729.56;4889963;29;4133;-61
2023/01/20 05:12:15;;;;;;;;;;;;;;;20.03;48.77;100736.06;4892690;29;4120;-60
2023/01/20 05:14:41;;;;;;;;;;;;;;;20.02;48.66;100734.56;4895712;29;4116;-60
2023/01/20 05:17:07;;;;;;;;;;;;;;;20.02;48.81;100740.31;4897560;29;4211;-60
2023/01/20 05:19:34;;;;;;;;;;;;;;;20.01;48.70;100744.56;4895737;29;5271;-60
2023/01/20 05:22:00;;;;;;;;;;;;;;;20.01;48.66;100752.47;4893788;29;4262;-61
2023/01/20 05:24:26;;;;;;;;;;;;;;;20.01;48.48;100755.34;4898398;29;4211;-61
2023/01/20 05:26:53;;;;;;;;;;;;;;;20.01;48.56;100756.06;4884938;29;4146;-60
2023/01/20 05:29:19;;;;;;;;;;;;;;;20.02;48.75;100751.06;4888198;29;5154;-60
2023/01/20 05:31:45;;;;;;;;;;;;;;;20.01;48.52;100761.81;4891756;29;4210;-60
2023/01/20 05:34:12;;;;;;;;;;;;;;;20.03;48.36;100764.06;4894662;29;5235;-61
2023/01/20 05:36:38;;;;;;;;;;;;;;;20.04;48.67;100766.28;4896228;29;4344;-61
2023/01/20 05:39:04;;;;;;;;;;;;;;;20.04;48.85;100777.78;4896561;29;4198;-61
2023/01/20 05:41:31;;;;;;;;;;;;;;;20.05;48.89;100776.38;4898452;29;4200;-63
2023/01/20 05:43:57;;;;;;;;;;;;;;;20.04;48.53;100777.03;4887748;29;4257;-62
2023/01/20 05:46:23;;;;;;;;;;;;;;;20.06;48.66;100780.72;4895443;29;4204;-61
2023/01/20 05:48:50;;;;;;;;;;;;;;;20.06;48.90;100774.25;4891778;29;4196;-61
2023/01/20 05:51:16;;;;;;;;;;;;;;;20.05;48.78;100776.38;4896931;29;4191;-61
2023/01/20 05:53:42;;;;;;;;;;;;;;;20.04;49.01;100777.78;4900049;29;4128;-61
2023/01/20 05:56:11;;;;;;;;;;;;;;;20.04;48.88;100783.53;4894319;29;4257;-61
2023/01/20 05:58:37;;;;;;;;;;;;;;;20.01;48.87;100787.69;4895302;29;4252;-61
2023/01/20 06:01:07;;;;;;;;;;;;;;;20.01;48.83;100796.31;4889170;29;6427;-61
2023/01/20 06:03:34;;;;;;;;;;;;;;;20.02;48.88;100803.56;4883651;29;4187;-61
2023/01/20 06:06:01;;;;;;;;;;;;;;;20.02;48.74;100815.06;4882867;29;5535;-62
2023/01/20 06:08:27;;;;;;;;;;;;;;;20.01;48.60;100819.31;4895173;29;4194;-61
2023/01/20 06:10:53;;;;;;;;;;;;;;;19.99;48.77;100824.22;4889613;29;4156;-64
2023/01/20 06:13:20;;;;;;;;;;;;;;;20.05;48.85;100825.25;4894232;29;4633;-64
2023/01/20 06:15:50;;;;;;;;;;;;;;;19.64;48.28;100816.78;4889362;29;4175;-62
2023/01/20 06:18:16;;;;;;;;;;;;;;;19.79;48.56;100821.13;4885070;29;5514;-62
2023/01/20 06:20:42;;;;;;;;;;;;;;;19.99;49.28;100827.84;4883240;29;4212;-71
2023/01/20 06:23:09;;;;;;;;;;;;;;;20.14;49.42;100822.78;4891563;29;4208;-70
2023/01/20 06:25:35;;;;;;;;;;;;;;;20.20;50.04;100835.31;4896359;29;5231;-71
2023/01/20 06:28:02;;;;;;;;;;;;;;;20.21;50.65;100841.78;4895528;29;5247;-69
2023/01/20 06:30:28;;;;;;;;;;;;;;;20.28;50.55;100841.41;4893790;29;4218;-68
2023/01/20 06:32:56;;;;;;;;;;;;;;;20.26;50.32;100841.31;4897351;29;4117;-66
2023/01/20 06:35:23;;;;;;;;;;;;;;;20.21;50.46;100854.03;4886503;29;4143;-68
2023/01/20 06:37:49;;;;;;;;;;;;;;;20.24;50.30;100846.22;4893998;29;4144;-66
2023/01/20 06:40:16;;;;;;;;;;;;;;;20.22;50.15;100857.63;4891350;29;4214;-68
2023/01/20 06:42:42;;;;;;;;;;;;;;;20.26;49.48;100866.47;4895233;29;4278;-67
2023/01/20 06:45:09;;;;;;;;;;;;;;;20.31;49.28;100868.13;4888326;29;4242;-71
2023/01/20 06:47:35;;;;;;;;;;;;;;;20.30;48.95;100878.16;4895233;29;4240;-69
2023/01/20 06:50:42;;;;;;;;;;;;;;;20.26;48.87;100877.97;4893196;29;4176;-69
2023/01/20 06:53:52;;;;;;;;;;;;;;;20.20;48.14;100886.28;4889721;29;5755;-68
2023/01/20 06:56:18;;;;;;;;;;;;;;;20.22;48.46;100895.00;4892973;29;5532;-67
2023/01/20 06:58:44;;;;;;;;;;;;;;;20.19;48.38;100904.94;4895032;29;4273;-66
2023/01/20 07:01:12;;;;;;;;;;;;;;;20.11;48.88;100907.41;4894279;29;4191;-64
2023/01/20 07:03:40;;;;;;;;;;;;;;;20.27;49.32;100896.69;4891836;29;4524;-69
2023/01/20 07:06:12;;;;;;;;;;;;;;;20.32;48.73;100904.13;4912680;29;4222;-70
2023/01/20 07:08:39;;;;;;;;;;;;;;;20.39;49.14;100902.28;4899524;29;5279;-69
2023/01/20 07:11:05;;;;;;;;;;;;;;;20.41;48.96;100906.00;4898197;29;4256;-68
2023/01/20 07:13:31;;;;;;;;;;;;;;;20.54;48.69;100906.56;4899585;29;4567;-69
2023/01/20 07:15:58;;;;;;;;;;;;;;;20.54;48.76;100913.06;4902418;29;4213;-68
2023/01/20 07:18:24;;;;;;;;;;;;;;;20.48;48.89;100922.16;4903551;29;4280;-66
2023/01/20 07:20:54;;;;;;;;;;;;;;;20.47;48.29;100926.41;4900365;29;4133;-69
2023/01/20 07:23:20;;;;;;;;;;;;;;;20.49;48.61;100929.38;4894183;29;4278;-67
2023/01/20 07:25:47;;;;;;;;;;;;;;;20.32;48.74;100932.88;4895585;29;4160;-69
2023/01/20 07:28:13;;;;;;;;;;;;;;;20.30;48.71;100941.41;4897466;29;4306;-68
2023/01/20 07:30:39;;;;;;;;;;;;;;;20.29;49.26;100940.69;4896779;29;4510;-69
2023/01/20 07:33:06;;;;;;;;;;;;;;;20.45;48.68;100952.19;4899621;29;4394;-70
2023/01/20 07:35:32;;;;;;;;;;;;;;;20.53;48.53;100942.47;4899404;29;4572;-70
2023/01/20 07:37:58;;;;;;;;;;;;;;;20.35;48.80;100939.47;4900975;29;4155;-68
2023/01/20 07:40:25;;;;;;;;;;;;;;;20.13;49.02;100954.25;4900604;29;4189;-69
2023/01/20 07:42:51;;;;;;;;;;;;;;;20.24;49.83;100944.00;4895052;29;4192;-68
2023/01/20 07:45:18;;;;;;;;;;;;;;;20.32;49.39;100950.16;4910895;29;5325;-67
2023/01/20 07:47:45;;;;;;;;;;;;;;;20.29;49.65;100957.16;4901868;29;5413;-67
2023/01/20 07:50:11;;;;;;;;;;;;;;;20.25;49.51;100960.63;4907133;29;4444;-67
2023/01/20 07:52:37;;;;;;;;;;;;;;;20.27;49.18;100957.06;4902505;29;5204;-65
2023/01/20 07:55:04;;;;;;;;;;;;;;;20.29;49.17;100957.94;4889151;29;4167;-68
2023/01/20 07:57:30;;;;;;;;;;;;;;;20.39;48.90;100957.66;4896217;29;4309;-68
2023/01/20 07:59:56;;;;;;;;;;;;;;;20.59;48.79;100954.28;4902218;29;4234;-72
2023/01/20 08:02:23;;;;;;;;;;;;;;;20.75;48.33;100968.69;4900084;29;3936;-70
2023/01/20 08:04:49;;;;;;;;;;;;;;;20.78;48.03;100973.16;4902587;29;4095;-70
2023/01/20 08:07:15;;;;;;;;;;;;;;;20.75;47.92;100980.94;4900569;29;4793;-72
2023/01/20 08:09:42;;;;;;;;;;;;;;;20.46;49.08;100982.47;4899267;29;6395;-66
2023/01/20 08:12:09;;;;;;;;;;;;;;;20.32;48.62;100981.78;4896018;29;4214;-66
2023/01/20 08:14:35;;;;;;;;;;;;;;;20.51;48.35;100989.16;4895812;29;4382;-69
2023/01/20 08:17:03;;;;;;;;;;;;;;;20.53;48.81;100985.63;4894897;29;4118;-65
2023/01/20 08:19:29;;;;;;;;;;;;;;;20.59;48.90;100988.81;4900937;29;5332;-65
2023/01/20 08:21:55;;;;;;;;;;;;;;;20.67;48.68;100994.97;4897480;29;4644;-65
2023/01/20 08:24:22;;;;;;;;;;;;;;;20.74;48.23;100988.09;4895972;29;4112;-68
2023/01/20 08:26:49;;;;;;;;;;;;;;;20.71;48.47;100998.78;4899731;29;4221;-67
2023/01/20 08:29:15;;;;;;;;;;;;;;;20.73;48.37;101008.88;4900192;29;5244;-68
2023/01/20 08:31:41;;;;;;;;;;;;;;;20.75;48.30;101000.34;4899503;29;4156;-67
2023/01/20 08:34:08;;;;;;;;;;;;;;;20.71;48.18;100998.03;4891560;29;4404;-67
2023/01/20 08:36:35;;;;;;;;;;;;;;;20.71;48.24;101012.41;4894586;29;5224;-71
2023/01/20 08:39:02;;;;;;;;;;;;;;;20.74;48.02;101014.00;4894822;29;5271;-65
2023/01/20 08:41:29;;;;;;;;;;;;;;;20.72;48.39;101013.91;4897991;29;5375;-66
2023/01/20 08:43:56;;;;;;;;;;;;;;;20.74;48.43;101013.25;4898344;29;4078;-65
2023/01/20 08:46:23;;;;;;;;;;;;;;;20.75;48.33;101015.47;4899816;29;4353;-65
2023/01/20 08:48:49;;;;;;;;;;;;;;;20.90;48.38;101025.53;4898271;29;4144;-68
2023/01/20 08:51:16;;;;;;;;;;;;;;;20.98;48.03;101016.53;4888031;29;4136;-69
2023/01/20 08:53:43;;;;;;;;;;;;;;;20.96;48.06;101025.06;4900472;29;4633;-68
2023/01/20 08:56:09;;;;;;;;;;;;;;;20.91;48.31;101027.78;4896783;29;5235;-66
2023/01/20 08:58:35;;;;;;;;;;;;;;;20.95;48.00;101017.81;4901234;29;4215;-68
2023/01/20 09:01:06;;;;;;;;;;;;;;;20.95;48.48;101035.09;4901193;29;4105;-67
2023/01/20 09:03:33;;;;;;;;;;;;;;;21.07;48.14;101032.78;4898232;29;4134;-69
2023/01/20 09:06:02;;;;;;;;;;;;;;;21.01;48.25;101044.03;4898497;29;4366;-67
2023/01/20 09:08:29;;;;;;;;;;;;;;;20.59;48.61;101041.38;4897159;29;4522;-71
2023/01/20 09:11:06;;;;;;;;;;;;;;;20.95;48.54;101053.09;4899148;29;4331;-69
2023/01/20 09:13:32;;;;;;;;;;;;;;;20.99;47.99;101058.31;4898908;29;5248;-72
2023/01/20 09:15:58;;;;;;;;;;;;;;;20.85;48.39;101056.25;4877854;29;4194;-65
2023/01/20 09:18:25;;;;;;;;;;;;;;;20.80;48.65;101071.84;4894406;29;4173;-67
2023/01/20 09:20:51;;;;;;;;;;;;;;;20.79;48.74;101066.72;4894113;29;4599;-66
2023/01/20 09:23:18;;;;;;;;;;;;;;;21.02;47.82;101080.06;4887678;29;4220;-70
2023/01/20 09:25:44;;;;;;;;;;;;;;;21.06;47.79;101075.22;4895500;29;4187;-70
2023/01/20 09:28:12;;;;;;;;;;;;;;;19.75;43.90;101085.28;4893523;29;4219;-64
2023/01/20 09:30:38;;;;;;;;;;;;;;;17.62;38.12;101090.41;4891751;29;5070;-63
2023/01/20 09:33:05;;;;;;;;;;;;;;;17.29;37.56;101082.66;4898789;29;4189;-69
2023/01/20 09:35:31;;;;;;;;;;;;;;;18.70;38.17;101085.31;4892971;29;5285;-68
2023/01/20 09:43:54;;;;;;;;;;;;;;;20.16;40.51;101093.09;4893520;29;5447;-65
2023/01/20 09:46:27;;;;;;;;;;;;;;;20.15;42.49;101097.38;4895561;29;4232;-65
2023/01/20 09:54:33;;;;;;;;;;;;;;;20.19;44.28;101100.47;4895416;29;4004;-66
2023/01/20 09:56:59;;;;;;;;;;;;;;;20.20;45.41;101104.81;4906603;29;4045;-66
2023/01/20 09:59:26;;;;;;;;;;;;;;;20.19;46.24;101104.06;4890757;29;4319;-66
2023/01/20 10:01:59;;;;;;;;;;;;;;;20.22;45.69;101099.16;4885727;29;5561;-67
2023/01/20 10:04:29;;;;;;;;;;;;;;;20.16;45.74;101110.34;4907761;29;4234;-66
2023/01/20 10:07:03;;;;;;;;;;;;;;;20.29;45.68;101112.47;4886570;29;4118;-68
2023/01/20 10:12:53;;;;;;;;;;;;;;;20.28;45.73;101122.50;4899806;29;4114;-68
2023/01/20 10:15:28;;;;;;;;;;;;;;;20.28;45.99;101128.25;4894510;29;4225;-69
2023/01/20 10:17:59;;;;;;;;;;;;;;;20.32;45.97;101116.94;4888935;29;4158;-69
2023/01/20 10:20:32;;;;;;;;;;;;;;;20.29;46.04;101126.84;4889699;29;5344;-68
2023/01/20 10:23:09;;;;;;;;;;;;;;;20.27;46.03;101132.50;4895411;29;4176;-69
2023/01/20 10:25:40;;;;;;;;;;;;;;;20.28;45.95;101128.25;4892900;29;4060;-68
2023/01/20 10:28:21;;;;;;;;;;;;;;;20.30;46.14;101126.22;4894514;29;4150;-68
2023/01/20 10:30:47;;;;;;;;;;;;;;;20.33;45.99;101124.19;4884423;29;4559;-67
2023/01/20 10:33:15;;;;;;;;;;;;;;;20.33;46.41;101129.94;4882185;29;4224;-68
2023/01/20 10:35:42;;;;;;;;;;;;;;;20.35;46.60;101137.94;4892975;29;4245;-69
2023/01/20 10:38:18;;;;;;;;;;;;;;;20.34;46.15;101131.44;4890792;29;5346;-68
2023/01/20 10:40:46;;;;;;;;;;;;;;;20.32;46.59;101131.31;4892763;29;4105;-68
2023/01/20 10:43:13;;;;;;;;;;;;;;;20.33;46.49;101132.81;4892915;29;5311;-68
2023/01/20 10:45:52;;;;;;;;;;;;;;;20.33;46.68;101132.06;4891948;29;4177;-68
2023/01/20 10:48:23;;;;;;;;;;;;;;;20.32;46.58;101139.97;4894318;29;4338;-69
2023/01/20 10:50:52;;;;;;;;;;;;;;;20.33;46.59;101132.81;4888373;29;4485;-67
2023/01/20 10:53:34;;;;;;;;;;;;;;;20.34;46.30;101142.16;4894273;29;4163;-69
2023/01/20 10:56:12;;;;;;;;;;;;;;;20.34;46.56;101142.94;4898531;29;5183;-67
2023/01/20 10:58:39;;;;;;;;;;;;;;;20.34;46.70;101148.69;4892596;29;4361;-68
2023/01/20 11:01:08;;;;;;;;;;;;;;;20.37;46.61;101147.41;4897268;29;4472;-68
2023/01/20 11:03:35;;;;;;;;;;;;;;;20.36;46.42;101154.53;4898435;29;4363;-68
2023/01/20 11:06:01;;;;;;;;;;;;;;;20.31;46.75;101149.97;4894430;29;4213;-73
2023/01/20 11:08:28;;;;;;;;;;;;;;;20.33;46.65;101152.19;4884138;29;4800;-69
2023/01/20 11:10:58;;;;;;;;;;;;;;;20.32;46.73;101151.47;4896333;29;5246;-69
2023/01/20 11:13:24;;;;;;;;;;;;;;;20.36;46.47;101157.41;4885321;29;4842;-71
2023/01/20 11:15:55;;;;;;;;;;;;;;;19.98;45.32;101154.03;4883594;29;4159;-63
2023/01/20 11:18:23;;;;;;;;;;;;;;;19.90;45.11;101164.34;4878944;29;4455;-72
2023/01/20 11:20:59;;;;;;;;;;;;;;;20.33;43.57;101157.94;4888670;29;4164;-67
2023/01/20 11:23:25;;;;;;;;;;;;;;;20.44;44.19;101163.56;4894160;29;5603;-66
2023/01/20 11:25:53;;;;;;;;;;;;;;;20.49;44.94;101162.38;4887783;29;4790;-66
2023/01/20 11:28:19;;;;;;;;;;;;;;;20.64;44.66;101168.91;4883571;29;4372;-68
2023/01/20 11:30:49;;;;;;;;;;;;;;;20.77;44.58;101165.22;4889983;29;5620;-67
2023/01/20 11:33:15;;;;;;;;;;;;;;;20.80;44.60;101163.19;4890942;29;4819;-73
2023/01/20 11:35:55;;;;;;;;;;;;;;;20.86;45.04;101170.00;4900387;29;4124;-72
2023/01/20 11:38:28;;;;;;;;;;;;;;;20.84;45.18;101172.75;4900063;29;4043;-74
2023/01/20 11:40:56;;;;;;;;;;;;;;;20.76;45.50;101177.41;4898654;29;4414;-73
2023/01/20 11:43:35;;;;;;;;;;;;;;;20.72;46.13;101175.06;4905602;29;3991;-72
2023/01/20 11:46:10;;;;;;;;;;;;;;;20.79;45.95;101170.34;4905307;29;4112;-76
2023/01/20 11:48:37;;;;;;;;;;;;;;;20.86;45.73;101172.13;4904694;29;4776;-69
2023/01/20 11:51:03;;;;;;;;;;;;;;;20.33;42.17;101172.31;4906998;29;4143;-72
2023/01/20 11:53:30;;;;;;;;;;;;;;;20.74;43.36;101175.16;4909855;29;5417;-73
2023/01/20 11:55:57;;;;;;;;;;;;;;;21.10;43.21;101173.31;4900492;29;5121;-69
2023/01/20 11:58:25;;;;;;;;;;;;;;;21.30;43.65;101172.78;4899632;29;4241;-70
2023/01/20 12:00:58;;;;;;;;;;;;;;;21.40;43.95;101172.56;4899819;29;5528;-72
2023/01/20 12:03:40;;;;;;;;;;;;;;;21.46;43.77;101172.84;4899751;29;4190;-75
2023/01/20 12:06:09;;;;;;;;;;;;;;;21.30;44.65;101176.44;4907582;29;4813;-72
2023/01/20 12:08:41;;;;;;;;;;;;;;;21.30;44.76;101167.81;4901564;29;4025;-71
2023/01/20 12:11:07;;;;;;;;;;;;;;;21.28;44.92;101173.47;4905733;29;4187;-71
2023/01/20 12:14:18;;;;;;;;;;;;;;;21.38;44.80;101178.22;4906486;29;4101;-76
2023/01/20 12:16:21;;;;;;;;;;;;;;;21.47;44.29;101180.13;4906544;29;4036;-82
2023/01/20 12:18:52;;;;;;;;;;;;;;;21.42;44.73;101179.19;4894719;29;4262;-72
2023/01/20 12:21:33;;;;;;;;;;;;;;;21.39;45.17;101174.66;4895359;29;5376;-71
2023/01/20 12:24:02;;;;;;;;;;;;;;;21.43;44.95;101182.81;4896592;29;4234;-74
2023/01/20 12:26:30;;;;;;;;;;;;;;;21.50;44.53;101184.56;4902260;29;4185;-77
2023/01/20 12:29:10;;;;;;;;;;;;;;;21.60;44.61;101187.94;4891489;29;6353;-78
2023/01/20 12:31:36;;;;;;;;;;;;;;;21.63;44.27;101197.41;4887760;29;4056;-69
2023/01/20 12:34:03;;;;;;;;;;;;;;;21.71;44.35;101195.63;4902146;29;4574;-69
2023/01/20 12:36:35;;;;;;;;;;;;;;;21.71;44.37;101204.28;4904610;29;5422;-72
2023/01/20 12:39:16;;;;;;;;;;;;;;;21.77;43.95;101211.75;4891438;29;4426;-71
2023/01/20 12:41:47;;;;;;;;;;;;;;;21.83;43.82;101212.78;4903369;29;4237;-72
2023/01/20 12:44:32;;;;;;;;;;;;;;;21.88;43.82;101211.56;4895347;29;4215;-72
2023/01/20 12:47:09;;;;;;;;;;;;;;;21.89;43.48;101220.94;4894976;29;5160;-72
2023/01/20 12:49:58;;;;;;;;;;;;;;;21.71;44.01;101221.56;4893760;29;4193;-74
2023/01/20 12:52:37;;;;;;;;;;;;;;;21.66;44.44;101225.66;4892626;29;4332;-74
2023/01/20 12:55:08;;;;;;;;;;;;;;;21.57;44.48;101235.31;4892651;29;4253;-70
2023/01/20 12:57:40;;;;;;;;;;;;;;;21.57;44.31;101235.31;4889556;29;4153;-76
2023/01/20 13:00:25;;;;;;;;;;;;;;;21.53;44.16;101246.66;4894892;29;4288;-75
2023/01/20 13:02:57;;;;;;;;;;;;;;;21.53;44.63;101244.53;4888181;29;4215;-70
2023/01/20 13:05:26;;;;;;;;;;;;;;;21.52;44.73;101245.19;4895010;29;4260;-70
2023/01/20 13:08:01;;;;;;;;;;;;;;;21.24;42.58;101245.25;4890584;29;4156;-71
2023/01/20 13:10:47;;;;;;;;;;;;;;;21.15;41.91;101249.13;4891319;29;4478;-71